sensor_id;sensor_type;location;lat;lon;timestamp;P1;durP1;ratioP1;P2;durP2;ratioP2
67804;SDS011;54603;45.638;11.714;2023-04-25T00:02:02;3.00;;;1.50;;
67804;SDS011;54603;45.638;11.714;2023-04-25T00:04:28;1.80;;;1.30;;
67804;SDS011;54603;45.638;11.714;2023-04-25T00:06:54;2.00;;;1.50;;
67804;SDS011;54603;45.638;11.714;2023-04-25T00:09:21;2.30;;;1.40;;
67804;SDS011;54603;45.638;11.714;2023-04-25T00:11:47;3.20;;;1.40;;
67804;SDS011;54603;45.638;11.714;2023-04-25T00:14:13;1.50;;;1.10;;
67804;SDS011;54603;45.638;11.714;2023-04-25T00:16:39;2.20;;;1.40;;
67804;SDS011;54603;45.638;11.714;2023-04-25T00:19:06;2.20;;;1.30;;
67804;SDS011;54603;45.638;11.714;2023-04-25T00:21:32;2.00;;;1.30;;
67804;SDS011;54603;45.638;11.714;2023-04-25T00:23:58;3.40;;;1.30;;
67804;SDS011;54603;45.638;11.714;2023-04-25T00:26:25;1.70;;;1.40;;
67804;SDS011;54603;45.638;11.714;2023-04-25T00:28:52;1.90;;;1.30;;
67804;SDS011;54603;45.638;11.714;2023-04-25T00:31:18;3.00;;;1.60;;
67804;SDS011;54603;45.638;11.714;2023-04-25T00:33:43;4.20;;;1.40;;
67804;SDS011;54603;45.638;11.714;2023-04-25T00:36:09;2.50;;;1.60;;
67804;SDS011;54603;45.638;11.714;2023-04-25T00:38:34;2.30;;;1.30;;
67804;SDS011;54603;45.638;11.714;2023-04-25T00:41:00;3.70;;;1.20;;
67804;SDS011;54603;45.638;11.714;2023-04-25T00:43:26;2.60;;;1.40;;
67804;SDS011;54603;45.638;11.714;2023-04-25T00:45:52;1.50;;;1.40;;
67804;SDS011;54603;45.638;11.714;2023-04-25T00:48:18;1.60;;;1.40;;
67804;SDS011;54603;45.638;11.714;2023-04-25T00:50:51;1.50;;;1.20;;
67804;SDS011;54603;45.638;11.714;2023-04-25T00:53:21;3.60;;;1.60;;
67804;SDS011;54603;45.638;11.714;2023-04-25T00:55:47;2.70;;;1.30;;
67804;SDS011;54603;45.638;11.714;2023-04-25T00:58:13;2.10;;;1.30;;
67804;SDS011;54603;45.638;11.714;2023-04-25T01:00:39;1.30;;;1.20;;
67804;SDS011;54603;45.638;11.714;2023-04-25T01:03:05;2.70;;;1.30;;
67804;SDS011;54603;45.638;11.714;2023-04-25T01:05:31;1.50;;;1.10;;
67804;SDS011;54603;45.638;11.714;2023-04-25T01:07:57;1.80;;;1.40;;
67804;SDS011;54603;45.638;11.714;2023-04-25T01:10:22;1.50;;;1.20;;
67804;SDS011;54603;45.638;11.714;2023-04-25T01:12:48;2.90;;;1.40;;
67804;SDS011;54603;45.638;11.714;2023-04-25T01:15:13;1.90;;;1.30;;
67804;SDS011;54603;45.638;11.714;2023-04-25T01:17:39;2.40;;;1.40;;
67804;SDS011;54603;45.638;11.714;2023-04-25T01:20:06;2.00;;;1.40;;
67804;SDS011;54603;45.638;11.714;2023-04-25T01:22:34;1.30;;;1.20;;
67804;SDS011;54603;45.638;11.714;2023-04-25T01:25:00;1.60;;;1.30;;
67804;SDS011;54603;45.638;11.714;2023-04-25T01:27:26;1.50;;;1.40;;
67804;SDS011;54603;45.638;11.714;2023-04-25T01:29:51;1.80;;;1.40;;
67804;SDS011;54603;45.638;11.714;2023-04-25T01:32:17;2.30;;;1.50;;
67804;SDS011;54603;45.638;11.714;2023-04-25T01:34:43;3.90;;;1.40;;
67804;SDS011;54603;45.638;11.714;2023-04-25T01:37:08;2.50;;;1.30;;
67804;SDS011;54603;45.638;11.714;2023-04-25T01:39:34;1.50;;;1.40;;
67804;SDS011;54603;45.638;11.714;2023-04-25T01:42:00;1.50;;;1.30;;
67804;SDS011;54603;45.638;11.714;2023-04-25T01:44:26;1.90;;;1.30;;
67804;SDS011;54603;45.638;11.714;2023-04-25T01:46:52;2.20;;;1.30;;
67804;SDS011;54603;45.638;11.714;2023-04-25T01:49:18;1.80;;;1.20;;
67804;SDS011;54603;45.638;11.714;2023-04-25T01:51:43;2.60;;;1.40;;
67804;SDS011;54603;45.638;11.714;2023-04-25T01:54:09;1.70;;;1.20;;
67804;SDS011;54603;45.638;11.714;2023-04-25T01:56:36;4.40;;;1.60;;
67804;SDS011;54603;45.638;11.714;2023-04-25T01:59:03;1.70;;;1.40;;
67804;SDS011;54603;45.638;11.714;2023-04-25T02:01:29;2.90;;;1.30;;
67804;SDS011;54603;45.638;11.714;2023-04-25T02:03:55;4.90;;;1.40;;
67804;SDS011;54603;45.638;11.714;2023-04-25T02:06:20;1.80;;;1.30;;
67804;SDS011;54603;45.638;11.714;2023-04-25T02:08:46;1.50;;;1.20;;
67804;SDS011;54603;45.638;11.714;2023-04-25T02:11:11;1.90;;;1.40;;
67804;SDS011;54603;45.638;11.714;2023-04-25T02:13:37;1.30;;;1.20;;
67804;SDS011;54603;45.638;11.714;2023-04-25T02:16:03;1.70;;;1.30;;
67804;SDS011;54603;45.638;11.714;2023-04-25T02:18:28;1.60;;;1.30;;
67804;SDS011;54603;45.638;11.714;2023-04-25T02:20:54;2.10;;;1.50;;
67804;SDS011;54603;45.638;11.714;2023-04-25T02:23:19;1.80;;;1.20;;
67804;SDS011;54603;45.638;11.714;2023-04-25T02:25:45;1.50;;;1.40;;
67804;SDS011;54603;45.638;11.714;2023-04-25T02:28:11;1.80;;;1.20;;
67804;SDS011;54603;45.638;11.714;2023-04-25T02:30:36;3.50;;;1.30;;
67804;SDS011;54603;45.638;11.714;2023-04-25T02:33:02;2.20;;;1.30;;
67804;SDS011;54603;45.638;11.714;2023-04-25T02:35:28;2.30;;;1.40;;
67804;SDS011;54603;45.638;11.714;2023-04-25T02:37:53;2.00;;;1.20;;
67804;SDS011;54603;45.638;11.714;2023-04-25T02:40:19;2.30;;;1.30;;
67804;SDS011;54603;45.638;11.714;2023-04-25T02:42:44;1.40;;;1.20;;
67804;SDS011;54603;45.638;11.714;2023-04-25T02:45:11;2.50;;;1.60;;
67804;SDS011;54603;45.638;11.714;2023-04-25T02:47:37;7.10;;;1.40;;
67804;SDS011;54603;45.638;11.714;2023-04-25T02:50:03;1.50;;;1.30;;
67804;SDS011;54603;45.638;11.714;2023-04-25T02:52:29;1.30;;;1.10;;
67804;SDS011;54603;45.638;11.714;2023-04-25T02:54:57;1.90;;;1.20;;
67804;SDS011;54603;45.638;11.714;2023-04-25T02:57:23;1.90;;;1.30;;
67804;SDS011;54603;45.638;11.714;2023-04-25T02:59:48;1.50;;;1.30;;
67804;SDS011;54603;45.638;11.714;2023-04-25T03:02:14;1.90;;;1.40;;
67804;SDS011;54603;45.638;11.714;2023-04-25T03:04:39;1.60;;;1.20;;
67804;SDS011;54603;45.638;11.714;2023-04-25T03:07:06;2.30;;;1.40;;
67804;SDS011;54603;45.638;11.714;2023-04-25T03:09:32;1.60;;;1.20;;
67804;SDS011;54603;45.638;11.714;2023-04-25T03:11:58;1.90;;;1.20;;
67804;SDS011;54603;45.638;11.714;2023-04-25T03:14:23;1.50;;;1.30;;
67804;SDS011;54603;45.638;11.714;2023-04-25T03:16:49;1.30;;;1.20;;
67804;SDS011;54603;45.638;11.714;2023-04-25T03:19:14;1.90;;;1.20;;
67804;SDS011;54603;45.638;11.714;2023-04-25T03:21:42;1.50;;;1.20;;
67804;SDS011;54603;45.638;11.714;2023-04-25T03:24:08;4.20;;;1.20;;
67804;SDS011;54603;45.638;11.714;2023-04-25T03:26:36;1.20;;;1.10;;
67804;SDS011;54603;45.638;11.714;2023-04-25T03:29:01;4.00;;;1.30;;
67804;SDS011;54603;45.638;11.714;2023-04-25T03:31:27;2.50;;;1.30;;
67804;SDS011;54603;45.638;11.714;2023-04-25T03:33:53;4.60;;;1.30;;
67804;SDS011;54603;45.638;11.714;2023-04-25T03:36:18;2.50;;;1.20;;
67804;SDS011;54603;45.638;11.714;2023-04-25T03:38:44;1.20;;;1.10;;
67804;SDS011;54603;45.638;11.714;2023-04-25T03:41:09;1.60;;;1.20;;
67804;SDS011;54603;45.638;11.714;2023-04-25T03:43:35;1.90;;;1.20;;
67804;SDS011;54603;45.638;11.714;2023-04-25T03:46:00;1.70;;;1.20;;
67804;SDS011;54603;45.638;11.714;2023-04-25T03:48:26;1.70;;;1.30;;
67804;SDS011;54603;45.638;11.714;2023-04-25T03:50:52;1.40;;;1.10;;
67804;SDS011;54603;45.638;11.714;2023-04-25T03:53:18;0.90;;;0.80;;
67804;SDS011;54603;45.638;11.714;2023-04-25T03:55:44;1.30;;;1.10;;
67804;SDS011;54603;45.638;11.714;2023-04-25T03:58:09;1.40;;;1.10;;
67804;SDS011;54603;45.638;11.714;2023-04-25T04:00:35;2.20;;;1.40;;
67804;SDS011;54603;45.638;11.714;2023-04-25T04:03:01;1.50;;;1.10;;
67804;SDS011;54603;45.638;11.714;2023-04-25T04:05:26;2.00;;;1.20;;
67804;SDS011;54603;45.638;11.714;2023-04-25T04:07:52;1.00;;;1.00;;
67804;SDS011;54603;45.638;11.714;2023-04-25T04:10:18;1.70;;;1.10;;
67804;SDS011;54603;45.638;11.714;2023-04-25T04:12:43;1.40;;;1.10;;
67804;SDS011;54603;45.638;11.714;2023-04-25T04:15:09;1.40;;;1.30;;
67804;SDS011;54603;45.638;11.714;2023-04-25T04:17:35;2.10;;;1.40;;
67804;SDS011;54603;45.638;11.714;2023-04-25T04:20:01;1.40;;;1.10;;
67804;SDS011;54603;45.638;11.714;2023-04-25T04:22:28;1.40;;;1.30;;
67804;SDS011;54603;45.638;11.714;2023-04-25T04:24:53;1.70;;;1.20;;
67804;SDS011;54603;45.638;11.714;2023-04-25T04:27:19;1.80;;;1.40;;
67804;SDS011;54603;45.638;11.714;2023-04-25T04:29:47;1.80;;;1.00;;
67804;SDS011;54603;45.638;11.714;2023-04-25T04:32:13;1.10;;;1.00;;
67804;SDS011;54603;45.638;11.714;2023-04-25T04:34:39;1.10;;;1.00;;
67804;SDS011;54603;45.638;11.714;2023-04-25T04:37:06;2.30;;;1.10;;
67804;SDS011;54603;45.638;11.714;2023-04-25T04:39:32;1.20;;;1.00;;
67804;SDS011;54603;45.638;11.714;2023-04-25T04:41:59;1.20;;;1.00;;
67804;SDS011;54603;45.638;11.714;2023-04-25T04:44:26;1.50;;;1.10;;
67804;SDS011;54603;45.638;11.714;2023-04-25T04:46:53;1.40;;;1.20;;
67804;SDS011;54603;45.638;11.714;2023-04-25T04:49:19;1.70;;;1.30;;
67804;SDS011;54603;45.638;11.714;2023-04-25T04:51:44;1.60;;;1.20;;
67804;SDS011;54603;45.638;11.714;2023-04-25T04:54:10;1.60;;;1.10;;
67804;SDS011;54603;45.638;11.714;2023-04-25T04:56:35;2.20;;;1.20;;
67804;SDS011;54603;45.638;11.714;2023-04-25T04:59:01;1.20;;;1.10;;
67804;SDS011;54603;45.638;11.714;2023-04-25T05:01:27;1.40;;;1.20;;
67804;SDS011;54603;45.638;11.714;2023-04-25T05:03:55;1.10;;;1.00;;
67804;SDS011;54603;45.638;11.714;2023-04-25T05:06:25;1.30;;;1.00;;
67804;SDS011;54603;45.638;11.714;2023-04-25T05:08:51;1.50;;;1.30;;
67804;SDS011;54603;45.638;11.714;2023-04-25T05:11:18;1.60;;;1.10;;
67804;SDS011;54603;45.638;11.714;2023-04-25T05:13:44;1.50;;;1.00;;
67804;SDS011;54603;45.638;11.714;2023-04-25T05:16:11;1.40;;;1.20;;
67804;SDS011;54603;45.638;11.714;2023-04-25T05:18:37;1.10;;;1.00;;
67804;SDS011;54603;45.638;11.714;2023-04-25T05:21:03;1.60;;;1.10;;
67804;SDS011;54603;45.638;11.714;2023-04-25T05:23:30;3.60;;;1.20;;
67804;SDS011;54603;45.638;11.714;2023-04-25T05:25:56;1.20;;;1.10;;
67804;SDS011;54603;45.638;11.714;2023-04-25T05:28:22;1.10;;;1.00;;
67804;SDS011;54603;45.638;11.714;2023-04-25T05:30:48;1.40;;;1.20;;
67804;SDS011;54603;45.638;11.714;2023-04-25T05:33:13;2.40;;;1.10;;
67804;SDS011;54603;45.638;11.714;2023-04-25T05:35:39;1.00;;;0.90;;
67804;SDS011;54603;45.638;11.714;2023-04-25T05:38:05;1.20;;;1.10;;
67804;SDS011;54603;45.638;11.714;2023-04-25T05:40:30;1.30;;;1.10;;
67804;SDS011;54603;45.638;11.714;2023-04-25T05:42:56;2.50;;;1.20;;
67804;SDS011;54603;45.638;11.714;2023-04-25T05:45:21;2.00;;;1.00;;
67804;SDS011;54603;45.638;11.714;2023-04-25T05:47:47;1.30;;;1.10;;
67804;SDS011;54603;45.638;11.714;2023-04-25T05:50:12;1.30;;;1.20;;
67804;SDS011;54603;45.638;11.714;2023-04-25T05:52:38;1.00;;;1.00;;
67804;SDS011;54603;45.638;11.714;2023-04-25T05:55:04;1.40;;;1.20;;
67804;SDS011;54603;45.638;11.714;2023-04-25T05:57:29;1.40;;;1.10;;
67804;SDS011;54603;45.638;11.714;2023-04-25T05:59:55;2.50;;;1.20;;
67804;SDS011;54603;45.638;11.714;2023-04-25T06:02:21;2.70;;;1.10;;
67804;SDS011;54603;45.638;11.714;2023-04-25T06:04:46;2.60;;;1.00;;
67804;SDS011;54603;45.638;11.714;2023-04-25T06:07:14;2.30;;;1.10;;
67804;SDS011;54603;45.638;11.714;2023-04-25T06:09:41;5.30;;;1.20;;
67804;SDS011;54603;45.638;11.714;2023-04-25T06:12:08;1.80;;;1.20;;
67804;SDS011;54603;45.638;11.714;2023-04-25T06:14:35;2.30;;;0.90;;
67804;SDS011;54603;45.638;11.714;2023-04-25T06:17:02;6.70;;;1.10;;
67804;SDS011;54603;45.638;11.714;2023-04-25T06:19:33;5.30;;;1.00;;
67804;SDS011;54603;45.638;11.714;2023-04-25T06:22:02;1.40;;;1.00;;
67804;SDS011;54603;45.638;11.714;2023-04-25T06:24:28;2.00;;;1.00;;
67804;SDS011;54603;45.638;11.714;2023-04-25T06:26:54;1.80;;;1.10;;
67804;SDS011;54603;45.638;11.714;2023-04-25T06:29:20;5.80;;;1.10;;
67804;SDS011;54603;45.638;11.714;2023-04-25T06:31:47;2.80;;;1.20;;
67804;SDS011;54603;45.638;11.714;2023-04-25T06:34:13;3.80;;;1.10;;
67804;SDS011;54603;45.638;11.714;2023-04-25T06:36:38;2.50;;;1.10;;
67804;SDS011;54603;45.638;11.714;2023-04-25T06:39:04;1.40;;;1.00;;
67804;SDS011;54603;45.638;11.714;2023-04-25T06:41:29;3.20;;;1.10;;
67804;SDS011;54603;45.638;11.714;2023-04-25T06:43:56;2.40;;;1.20;;
67804;SDS011;54603;45.638;11.714;2023-04-25T06:46:24;2.50;;;1.20;;
67804;SDS011;54603;45.638;11.714;2023-04-25T06:48:52;2.10;;;1.30;;
67804;SDS011;54603;45.638;11.714;2023-04-25T06:51:32;1.50;;;0.90;;
67804;SDS011;54603;45.638;11.714;2023-04-25T06:53:59;2.80;;;1.10;;
67804;SDS011;54603;45.638;11.714;2023-04-25T06:56:33;3.20;;;1.10;;
67804;SDS011;54603;45.638;11.714;2023-04-25T06:58:59;1.90;;;1.00;;
67804;SDS011;54603;45.638;11.714;2023-04-25T07:01:25;4.20;;;1.00;;
67804;SDS011;54603;45.638;11.714;2023-04-25T07:03:51;2.20;;;1.00;;
67804;SDS011;54603;45.638;11.714;2023-04-25T07:06:16;1.40;;;1.10;;
67804;SDS011;54603;45.638;11.714;2023-04-25T07:08:42;3.60;;;1.10;;
67804;SDS011;54603;45.638;11.714;2023-04-25T07:11:09;1.30;;;1.00;;
67804;SDS011;54603;45.638;11.714;2023-04-25T07:13:35;1.70;;;1.20;;
67804;SDS011;54603;45.638;11.714;2023-04-25T07:16:01;3.00;;;1.00;;
67804;SDS011;54603;45.638;11.714;2023-04-25T07:18:28;1.10;;;0.90;;
67804;SDS011;54603;45.638;11.714;2023-04-25T07:20:58;2.50;;;1.00;;
67804;SDS011;54603;45.638;11.714;2023-04-25T07:23:42;2.50;;;1.10;;
67804;SDS011;54603;45.638;11.714;2023-04-25T07:26:07;2.10;;;1.00;;
67804;SDS011;54603;45.638;11.714;2023-04-25T07:28:33;2.70;;;1.10;;
67804;SDS011;54603;45.638;11.714;2023-04-25T07:30:58;2.40;;;1.10;;
67804;SDS011;54603;45.638;11.714;2023-04-25T07:33:24;2.40;;;1.10;;
67804;SDS011;54603;45.638;11.714;2023-04-25T07:35:51;2.20;;;1.00;;
67804;SDS011;54603;45.638;11.714;2023-04-25T07:38:17;2.70;;;1.10;;
67804;SDS011;54603;45.638;11.714;2023-04-25T07:40:42;2.20;;;1.10;;
67804;SDS011;54603;45.638;11.714;2023-04-25T07:43:08;1.90;;;1.00;;
67804;SDS011;54603;45.638;11.714;2023-04-25T07:45:34;3.60;;;1.20;;
67804;SDS011;54603;45.638;11.714;2023-04-25T07:47:59;1.80;;;1.00;;
67804;SDS011;54603;45.638;11.714;2023-04-25T07:50:25;2.80;;;1.20;;
67804;SDS011;54603;45.638;11.714;2023-04-25T07:52:50;1.60;;;1.00;;
67804;SDS011;54603;45.638;11.714;2023-04-25T07:55:16;1.90;;;1.10;;
67804;SDS011;54603;45.638;11.714;2023-04-25T07:57:43;1.30;;;1.10;;
67804;SDS011;54603;45.638;11.714;2023-04-25T08:00:13;1.80;;;1.00;;
67804;SDS011;54603;45.638;11.714;2023-04-25T08:02:41;1.30;;;1.10;;
67804;SDS011;54603;45.638;11.714;2023-04-25T08:05:07;1.00;;;0.90;;
67804;SDS011;54603;45.638;11.714;2023-04-25T08:07:36;4.30;;;1.30;;
67804;SDS011;54603;45.638;11.714;2023-04-25T08:10:04;4.00;;;1.20;;
67804;SDS011;54603;45.638;11.714;2023-04-25T08:12:30;2.20;;;1.30;;
67804;SDS011;54603;45.638;11.714;2023-04-25T08:14:56;2.90;;;1.30;;
67804;SDS011;54603;45.638;11.714;2023-04-25T08:17:22;1.90;;;1.20;;
67804;SDS011;54603;45.638;11.714;2023-04-25T08:19:47;3.30;;;1.10;;
67804;SDS011;54603;45.638;11.714;2023-04-25T08:22:14;3.00;;;1.10;;
67804;SDS011;54603;45.638;11.714;2023-04-25T08:24:39;1.60;;;1.20;;
67804;SDS011;54603;45.638;11.714;2023-04-25T08:27:05;1.30;;;1.10;;
67804;SDS011;54603;45.638;11.714;2023-04-25T08:29:35;3.10;;;1.00;;
67804;SDS011;54603;45.638;11.714;2023-04-25T08:32:00;2.00;;;1.40;;
67804;SDS011;54603;45.638;11.714;2023-04-25T08:34:26;1.30;;;1.20;;
67804;SDS011;54603;45.638;11.714;2023-04-25T08:36:52;1.50;;;1.30;;
67804;SDS011;54603;45.638;11.714;2023-04-25T08:39:18;3.50;;;1.10;;
67804;SDS011;54603;45.638;11.714;2023-04-25T08:41:45;1.30;;;1.20;;
67804;SDS011;54603;45.638;11.714;2023-04-25T08:44:11;3.40;;;1.40;;
67804;SDS011;54603;45.638;11.714;2023-04-25T08:46:40;2.40;;;1.20;;
67804;SDS011;54603;45.638;11.714;2023-04-25T08:49:06;3.50;;;1.20;;
67804;SDS011;54603;45.638;11.714;2023-04-25T08:51:34;1.50;;;1.30;;
67804;SDS011;54603;45.638;11.714;2023-04-25T08:54:08;3.30;;;1.10;;
67804;SDS011;54603;45.638;11.714;2023-04-25T08:56:43;1.30;;;1.20;;
67804;SDS011;54603;45.638;11.714;2023-04-25T09:01:36;2.90;;;1.30;;
67804;SDS011;54603;45.638;11.714;2023-04-25T09:04:06;2.90;;;1.30;;
67804;SDS011;54603;45.638;11.714;2023-04-25T09:06:36;1.60;;;1.40;;
67804;SDS011;54603;45.638;11.714;2023-04-25T09:09:10;3.50;;;1.50;;
67804;SDS011;54603;45.638;11.714;2023-04-25T09:11:36;3.40;;;1.40;;
67804;SDS011;54603;45.638;11.714;2023-04-25T09:19:26;3.10;;;1.70;;
67804;SDS011;54603;45.638;11.714;2023-04-25T09:21:57;3.10;;;1.70;;
67804;SDS011;54603;45.638;11.714;2023-04-25T09:24:35;2.90;;;1.60;;
67804;SDS011;54603;45.638;11.714;2023-04-25T09:27:06;3.50;;;1.60;;
67804;SDS011;54603;45.638;11.714;2023-04-25T09:29:35;2.90;;;1.90;;
67804;SDS011;54603;45.638;11.714;2023-04-25T09:32:16;3.80;;;1.80;;
67804;SDS011;54603;45.638;11.714;2023-04-25T09:34:42;3.50;;;1.90;;
67804;SDS011;54603;45.638;11.714;2023-04-25T09:37:10;2.80;;;1.80;;
67804;SDS011;54603;45.638;11.714;2023-04-25T09:39:36;2.60;;;1.80;;
67804;SDS011;54603;45.638;11.714;2023-04-25T09:42:05;2.20;;;1.60;;
67804;SDS011;54603;45.638;11.714;2023-04-25T09:44:31;2.40;;;1.70;;
67804;SDS011;54603;45.638;11.714;2023-04-25T09:46:57;3.20;;;1.60;;
67804;SDS011;54603;45.638;11.714;2023-04-25T09:49:25;2.40;;;1.70;;
67804;SDS011;54603;45.638;11.714;2023-04-25T09:51:57;2.70;;;1.70;;
67804;SDS011;54603;45.638;11.714;2023-04-25T09:54:24;3.70;;;1.50;;
67804;SDS011;54603;45.638;11.714;2023-04-25T09:56:53;4.50;;;1.70;;
67804;SDS011;54603;45.638;11.714;2023-04-25T09:59:22;6.10;;;1.30;;
67804;SDS011;54603;45.638;11.714;2023-04-25T10:01:49;4.90;;;1.50;;
67804;SDS011;54603;45.638;11.714;2023-04-25T10:04:21;3.80;;;1.60;;
67804;SDS011;54603;45.638;11.714;2023-04-25T10:07:29;3.40;;;1.40;;
67804;SDS011;54603;45.638;11.714;2023-04-25T10:10:02;3.90;;;1.30;;
67804;SDS011;54603;45.638;11.714;2023-04-25T10:12:29;2.60;;;1.30;;
67804;SDS011;54603;45.638;11.714;2023-04-25T10:14:56;2.70;;;1.30;;
67804;SDS011;54603;45.638;11.714;2023-04-25T10:17:23;2.60;;;1.60;;
67804;SDS011;54603;45.638;11.714;2023-04-25T10:19:48;2.20;;;1.50;;
67804;SDS011;54603;45.638;11.714;2023-04-25T10:22:17;4.40;;;1.50;;
67804;SDS011;54603;45.638;11.714;2023-04-25T10:24:58;2.60;;;1.50;;
67804;SDS011;54603;45.638;11.714;2023-04-25T10:27:24;2.90;;;1.70;;
67804;SDS011;54603;45.638;11.714;2023-04-25T10:30:09;4.70;;;1.50;;
67804;SDS011;54603;45.638;11.714;2023-04-25T10:32:37;10.30;;;1.30;;
67804;SDS011;54603;45.638;11.714;2023-04-25T10:35:37;3.60;;;1.50;;
67804;SDS011;54603;45.638;11.714;2023-04-25T10:38:08;3.80;;;1.40;;
67804;SDS011;54603;45.638;11.714;2023-04-25T10:40:35;4.90;;;1.40;;
67804;SDS011;54603;45.638;11.714;2023-04-25T10:46:12;2.20;;;1.20;;
67804;SDS011;54603;45.638;11.714;2023-04-25T10:48:53;2.80;;;1.20;;
67804;SDS011;54603;45.638;11.714;2023-04-25T10:51:27;2.60;;;1.20;;
67804;SDS011;54603;45.638;11.714;2023-04-25T10:54:05;2.70;;;1.30;;
67804;SDS011;54603;45.638;11.714;2023-04-25T10:56:37;2.50;;;1.40;;
67804;SDS011;54603;45.638;11.714;2023-04-25T10:59:13;2.50;;;1.30;;
67804;SDS011;54603;45.638;11.714;2023-04-25T11:01:40;2.50;;;1.40;;
67804;SDS011;54603;45.638;11.714;2023-04-25T11:07:14;1.40;;;1.20;;
67804;SDS011;54603;45.638;11.714;2023-04-25T11:09:45;1.90;;;1.20;;
67804;SDS011;54603;45.638;11.714;2023-04-25T11:12:11;3.00;;;1.20;;
67804;SDS011;54603;45.638;11.714;2023-04-25T11:14:37;3.20;;;1.20;;
67804;SDS011;54603;45.638;11.714;2023-04-25T11:17:03;3.10;;;1.30;;
67804;SDS011;54603;45.638;11.714;2023-04-25T11:19:30;3.10;;;1.30;;
67804;SDS011;54603;45.638;11.714;2023-04-25T11:21:57;3.00;;;1.20;;
67804;SDS011;54603;45.638;11.714;2023-04-25T11:24:29;2.10;;;1.20;;
67804;SDS011;54603;45.638;11.714;2023-04-25T11:26:58;2.30;;;1.20;;
67804;SDS011;54603;45.638;11.714;2023-04-25T11:29:27;2.30;;;1.30;;
67804;SDS011;54603;45.638;11.714;2023-04-25T11:31:54;2.60;;;1.20;;
67804;SDS011;54603;45.638;11.714;2023-04-25T11:34:23;5.90;;;1.30;;
67804;SDS011;54603;45.638;11.714;2023-04-25T11:36:50;3.10;;;1.30;;
67804;SDS011;54603;45.638;11.714;2023-04-25T11:39:19;3.40;;;1.30;;
67804;SDS011;54603;45.638;11.714;2023-04-25T11:41:45;1.90;;;1.20;;
67804;SDS011;54603;45.638;11.714;2023-04-25T11:44:11;2.20;;;1.50;;
67804;SDS011;54603;45.638;11.714;2023-04-25T11:46:37;2.70;;;1.30;;
67804;SDS011;54603;45.638;11.714;2023-04-25T11:49:02;2.90;;;1.30;;
67804;SDS011;54603;45.638;11.714;2023-04-25T11:51:30;2.60;;;1.40;;
67804;SDS011;54603;45.638;11.714;2023-04-25T11:53:56;1.60;;;1.10;;
67804;SDS011;54603;45.638;11.714;2023-04-25T11:56:22;2.30;;;1.30;;
67804;SDS011;54603;45.638;11.714;2023-04-25T11:58:57;6.10;;;1.40;;
67804;SDS011;54603;45.638;11.714;2023-04-25T12:01:32;2.30;;;1.20;;
67804;SDS011;54603;45.638;11.714;2023-04-25T12:04:09;3.70;;;1.30;;
67804;SDS011;54603;45.638;11.714;2023-04-25T12:06:42;1.90;;;1.10;;
67804;SDS011;54603;45.638;11.714;2023-04-25T12:09:09;3.30;;;1.40;;
67804;SDS011;54603;45.638;11.714;2023-04-25T12:11:42;5.80;;;1.10;;
67804;SDS011;54603;45.638;11.714;2023-04-25T12:14:35;2.20;;;1.00;;
67804;SDS011;54603;45.638;11.714;2023-04-25T12:17:02;3.40;;;1.40;;
67804;SDS011;54603;45.638;11.714;2023-04-25T12:19:33;3.40;;;1.30;;
67804;SDS011;54603;45.638;11.714;2023-04-25T12:22:19;2.40;;;1.40;;
67804;SDS011;54603;45.638;11.714;2023-04-25T12:24:49;9.10;;;1.30;;
67804;SDS011;54603;45.638;11.714;2023-04-25T12:27:16;2.10;;;1.10;;
67804;SDS011;54603;45.638;11.714;2023-04-25T12:29:52;5.90;;;1.10;;
67804;SDS011;54603;45.638;11.714;2023-04-25T12:32:19;2.40;;;1.20;;
67804;SDS011;54603;45.638;11.714;2023-04-25T12:34:45;5.20;;;1.20;;
67804;SDS011;54603;45.638;11.714;2023-04-25T12:37:12;1.90;;;1.10;;
67804;SDS011;54603;45.638;11.714;2023-04-25T12:39:38;1.40;;;1.00;;
67804;SDS011;54603;45.638;11.714;2023-04-25T12:42:04;2.00;;;1.20;;
67804;SDS011;54603;45.638;11.714;2023-04-25T12:44:32;1.70;;;1.10;;
67804;SDS011;54603;45.638;11.714;2023-04-25T12:46:58;2.40;;;1.10;;
67804;SDS011;54603;45.638;11.714;2023-04-25T12:49:25;2.40;;;1.00;;
67804;SDS011;54603;45.638;11.714;2023-04-25T12:51:50;2.90;;;1.10;;
67804;SDS011;54603;45.638;11.714;2023-04-25T12:54:16;5.50;;;1.30;;
67804;SDS011;54603;45.638;11.714;2023-04-25T12:56:42;1.90;;;1.10;;
67804;SDS011;54603;45.638;11.714;2023-04-25T12:59:08;5.40;;;1.20;;
67804;SDS011;54603;45.638;11.714;2023-04-25T13:01:34;2.70;;;1.20;;
67804;SDS011;54603;45.638;11.714;2023-04-25T13:04:00;5.60;;;1.40;;
67804;SDS011;54603;45.638;11.714;2023-04-25T13:06:25;2.60;;;1.10;;
67804;SDS011;54603;45.638;11.714;2023-04-25T13:08:51;2.10;;;1.10;;
67804;SDS011;54603;45.638;11.714;2023-04-25T13:11:17;3.30;;;1.20;;
67804;SDS011;54603;45.638;11.714;2023-04-25T13:13:43;6.40;;;1.30;;
67804;SDS011;54603;45.638;11.714;2023-04-25T13:16:09;5.90;;;1.20;;
67804;SDS011;54603;45.638;11.714;2023-04-25T13:18:34;6.50;;;1.10;;
67804;SDS011;54603;45.638;11.714;2023-04-25T13:21:01;2.00;;;1.00;;
67804;SDS011;54603;45.638;11.714;2023-04-25T13:23:28;2.60;;;1.10;;
67804;SDS011;54603;45.638;11.714;2023-04-25T13:25:54;3.30;;;1.20;;
67804;SDS011;54603;45.638;11.714;2023-04-25T13:28:22;3.70;;;1.10;;
67804;SDS011;54603;45.638;11.714;2023-04-25T13:30:49;3.20;;;1.00;;
67804;SDS011;54603;45.638;11.714;2023-04-25T13:33:14;1.90;;;1.10;;
67804;SDS011;54603;45.638;11.714;2023-04-25T13:35:40;4.30;;;1.20;;
67804;SDS011;54603;45.638;11.714;2023-04-25T13:38:06;2.20;;;1.10;;
67804;SDS011;54603;45.638;11.714;2023-04-25T13:40:32;2.10;;;1.10;;
67804;SDS011;54603;45.638;11.714;2023-04-25T13:42:58;1.60;;;1.10;;
67804;SDS011;54603;45.638;11.714;2023-04-25T13:45:24;4.90;;;1.20;;
67804;SDS011;54603;45.638;11.714;2023-04-25T13:47:50;3.30;;;1.30;;
67804;SDS011;54603;45.638;11.714;2023-04-25T13:50:15;2.50;;;1.20;;
67804;SDS011;54603;45.638;11.714;2023-04-25T13:52:42;1.90;;;1.20;;
67804;SDS011;54603;45.638;11.714;2023-04-25T13:55:08;2.80;;;1.20;;
67804;SDS011;54603;45.638;11.714;2023-04-25T13:57:34;2.90;;;1.10;;
67804;SDS011;54603;45.638;11.714;2023-04-25T14:00:01;1.90;;;0.90;;
67804;SDS011;54603;45.638;11.714;2023-04-25T14:02:34;4.40;;;1.00;;
67804;SDS011;54603;45.638;11.714;2023-04-25T14:05:01;3.00;;;1.20;;
67804;SDS011;54603;45.638;11.714;2023-04-25T14:07:28;1.70;;;1.00;;
67804;SDS011;54603;45.638;11.714;2023-04-25T14:09:54;2.20;;;1.10;;
67804;SDS011;54603;45.638;11.714;2023-04-25T14:12:19;4.20;;;1.20;;
67804;SDS011;54603;45.638;11.714;2023-04-25T14:14:45;3.90;;;1.30;;
67804;SDS011;54603;45.638;11.714;2023-04-25T14:17:11;1.70;;;1.10;;
67804;SDS011;54603;45.638;11.714;2023-04-25T14:19:36;2.30;;;1.10;;
67804;SDS011;54603;45.638;11.714;2023-04-25T14:22:03;2.00;;;0.90;;
67804;SDS011;54603;45.638;11.714;2023-04-25T14:24:29;2.00;;;1.00;;
67804;SDS011;54603;45.638;11.714;2023-04-25T14:26:55;2.00;;;0.90;;
67804;SDS011;54603;45.638;11.714;2023-04-25T14:29:21;3.40;;;1.50;;
67804;SDS011;54603;45.638;11.714;2023-04-25T14:31:46;2.90;;;1.00;;
67804;SDS011;54603;45.638;11.714;2023-04-25T14:34:12;1.80;;;1.00;;
67804;SDS011;54603;45.638;11.714;2023-04-25T14:36:37;5.00;;;1.40;;
67804;SDS011;54603;45.638;11.714;2023-04-25T14:39:03;1.50;;;1.00;;
67804;SDS011;54603;45.638;11.714;2023-04-25T14:41:32;1.70;;;1.00;;
67804;SDS011;54603;45.638;11.714;2023-04-25T14:43:57;2.00;;;1.10;;
67804;SDS011;54603;45.638;11.714;2023-04-25T14:46:23;3.40;;;1.20;;
67804;SDS011;54603;45.638;11.714;2023-04-25T14:48:49;3.70;;;1.00;;